createdAt,value
2022-09-20T00:01:23.219Z,100837.69
2022-09-20T00:04:24.921Z,100846.53
2022-09-20T00:07:28.623Z,100842.69
2022-09-20T00:10:31.622Z,100847.78
2022-09-20T00:13:36.126Z,100844.53
2022-09-20T00:16:40.389Z,100854.41
2022-09-20T00:19:42.289Z,100846.69
2022-09-20T00:22:43.949Z,100851.22
2022-09-20T00:25:46.047Z,100848.41
2022-09-20T00:28:49.056Z,100858.00
2022-09-20T00:31:50.781Z,100849.31
2022-09-20T00:35:07.623Z,100855.38
2022-09-20T00:38:09.278Z,100839.91
2022-09-20T00:41:11.147Z,100849.19
2022-09-20T00:44:43.064Z,100854.59
2022-09-20T00:47:49.902Z,100857.38
2022-09-20T00:50:57.153Z,100859.72
2022-09-20T00:54:01.821Z,100857.84
2022-09-20T00:57:04.290Z,100853.19
2022-09-20T01:00:12.219Z,100847.94
2022-09-20T01:03:15.743Z,100850.72
2022-09-20T01:06:17.936Z,100852.41
2022-09-20T01:09:19.560Z,100854.38
2022-09-20T01:12:25.891Z,100859.97
2022-09-20T01:15:31.064Z,100853.66
2022-09-20T01:18:34.757Z,100858.31
2022-09-20T01:21:36.621Z,100854.94
2022-09-20T01:24:47.866Z,100859.56
2022-09-20T01:27:52.510Z,100861.75
2022-09-20T01:31:05.151Z,100860.94
2022-09-20T01:34:11.147Z,100858.63
2022-09-20T01:37:21.941Z,100850.38
2022-09-20T01:40:33.968Z,100852.75
2022-09-20T01:43:45.690Z,100855.75
2022-09-20T01:46:53.583Z,100843.84
2022-09-20T01:50:05.224Z,100847.84
2022-09-20T01:53:49.070Z,100843.38
2022-09-20T01:57:18.837Z,100848.03
2022-09-20T02:00:26.243Z,100856.41
2022-09-20T02:03:54.252Z,100853.94
2022-09-20T02:07:21.359Z,100859.19
2022-09-20T02:10:40.556Z,100861.47
2022-09-20T02:14:05.405Z,100847.25
2022-09-20T02:17:13.825Z,100846.72
2022-09-20T02:20:30.638Z,100852.84
2022-09-20T02:23:40.589Z,100850.28
2022-09-20T02:26:57.191Z,100852.56
2022-09-20T02:30:13.327Z,100849.28
2022-09-20T02:33:46.444Z,100848.66
2022-09-20T02:37:06.405Z,100852.03
2022-09-20T02:40:20.800Z,100853.63
2022-09-20T02:43:30.464Z,100844.88
2022-09-20T02:46:41.156Z,100848.97
2022-09-20T02:49:53.929Z,100847.00
2022-09-20T02:53:13.024Z,100847.97
2022-09-20T02:56:25.227Z,100848.09
2022-09-20T02:59:35.449Z,100855.56
2022-09-20T03:02:51.696Z,100849.72
2022-09-20T03:06:04.908Z,100858.19
2022-09-20T03:09:13.904Z,100856.59
2022-09-20T03:12:26.301Z,100857.88
2022-09-20T03:15:39.144Z,100863.38
2022-09-20T03:18:50.793Z,100864.19
2022-09-20T03:22:05.679Z,100869.22
2022-09-20T03:25:34.440Z,100869.97
2022-09-20T03:28:53.399Z,100873.91
2022-09-20T03:32:13.465Z,100878.81
2022-09-20T03:35:29.451Z,100882.56
2022-09-20T03:38:48.234Z,100881.44
2022-09-20T03:42:16.473Z,100885.59
2022-09-20T03:45:39.023Z,100878.00
2022-09-20T03:49:19.435Z,100881.53
2022-09-20T03:52:40.925Z,100881.78
2022-09-20T03:56:22.555Z,100877.13
2022-09-20T03:59:39.720Z,100876.78
2022-09-20T04:03:05.161Z,100874.94
2022-09-20T04:06:32.324Z,100876.16
2022-09-20T04:09:52.674Z,100874.75
2022-09-20T04:13:12.402Z,100869.91
2022-09-20T04:16:25.663Z,100872.78
2022-09-20T04:19:35.166Z,100879.31
2022-09-20T04:22:36.944Z,100874.53
2022-09-20T04:25:44.134Z,100875.00
2022-09-20T04:28:54.026Z,100891.88
2022-09-20T04:32:01.466Z,100885.66
2022-09-20T04:35:32.543Z,100887.16
2022-09-20T04:38:35.730Z,100885.41
2022-09-20T04:42:11.375Z,100892.94
2022-09-20T04:45:28.840Z,100894.84
2022-09-20T04:49:10.182Z,100894.97
2022-09-20T04:52:55.140Z,100890.97
2022-09-20T04:56:03.207Z,100901.28
2022-09-20T04:59:10.128Z,100901.81
2022-09-20T05:02:40.012Z,100914.03
2022-09-20T05:05:53.626Z,100917.22
2022-09-20T05:09:18.644Z,100920.25
2022-09-20T05:12:46.406Z,100920.53
2022-09-20T05:15:59.755Z,100923.28
2022-09-20T05:19:26.441Z,100930.81
2022-09-20T05:23:13.140Z,100927.59
2022-09-20T05:26:25.635Z,100929.41
2022-09-20T05:29:33.869Z,100934.63
2022-09-20T05:32:45.219Z,100930.81
2022-09-20T05:35:58.608Z,100933.66
2022-09-20T05:39:09.763Z,100944.13
2022-09-20T05:42:19.561Z,100935.72
2022-09-20T05:45:40.796Z,100947.47
2022-09-20T05:48:53.720Z,100941.53
2022-09-20T05:52:14.027Z,100949.53
2022-09-20T05:55:30.626Z,100951.66
2022-09-20T05:58:43.896Z,100963.63
2022-09-20T06:01:58.975Z,100961.34
2022-09-20T06:05:08.659Z,100960.34
2022-09-20T06:08:29.711Z,100959.28
2022-09-20T06:11:54.957Z,100967.66
2022-09-20T06:15:03.936Z,100966.50
2022-09-20T06:18:20.416Z,100965.66
2022-09-20T06:21:31.214Z,100959.13
2022-09-20T06:24:39.239Z,100968.63
2022-09-20T06:27:45.045Z,100965.66
2022-09-20T06:30:48.836Z,100969.19
2022-09-20T06:33:58.088Z,100976.00
2022-09-20T06:37:28.966Z,100973.28
2022-09-20T06:40:59.194Z,100969.38
2022-09-20T06:44:02.069Z,100960.25
2022-09-20T06:47:05.767Z,100964.72
2022-09-20T06:50:15.074Z,100961.75
2022-09-20T06:53:18.272Z,100967.16
2022-09-20T06:56:23.686Z,100965.63
2022-09-20T06:59:25.347Z,100967.91
2022-09-20T07:02:27.220Z,100975.59
2022-09-20T07:05:29.173Z,100972.13
2022-09-20T07:08:30.754Z,100972.19
2022-09-20T07:11:34.889Z,100975.16
2022-09-20T07:14:37.002Z,100977.63
2022-09-20T07:17:38.608Z,100983.06
2022-09-20T07:20:41.679Z,100982.47
2022-09-20T07:23:45.673Z,100995.16
2022-09-20T07:26:57.192Z,100985.25
2022-09-20T07:29:58.787Z,100991.94
2022-09-20T07:33:00.599Z,100989.06
2022-09-20T07:36:02.698Z,100987.81
2022-09-20T07:39:04.420Z,100987.84
2022-09-20T07:42:08.066Z,100999.00
2022-09-20T07:45:13.171Z,100993.41
2022-09-20T07:48:15.012Z,100996.53
2022-09-20T07:51:16.667Z,100996.09
2022-09-20T07:54:18.810Z,100990.81
2022-09-20T07:57:21.807Z,100994.06
2022-09-20T08:00:23.429Z,101006.00
2022-09-20T08:03:26.317Z,100998.22
2022-09-20T08:06:27.952Z,101006.28
2022-09-20T08:09:29.561Z,101013.13
2022-09-20T08:16:01.750Z,101008.03
2022-09-20T08:19:03.373Z,101008.59
2022-09-20T08:22:05.019Z,101008.13
2022-09-20T08:25:07.526Z,101005.81
2022-09-20T08:28:10.525Z,101009.63
2022-09-20T08:31:14.575Z,101012.19
2022-09-20T08:34:17.625Z,101012.50
2022-09-20T08:37:19.271Z,101016.50
2022-09-20T08:40:23.816Z,101017.44
2022-09-20T08:43:30.422Z,101023.84
2022-09-20T08:46:35.684Z,101020.59
2022-09-20T08:49:40.512Z,101013.88
2022-09-20T08:52:44.915Z,101018.34
2022-09-20T08:55:47.121Z,101013.06
2022-09-20T08:58:50.860Z,101013.63
2022-09-20T09:01:53.561Z,101012.28
2022-09-20T09:04:56.042Z,101005.84
2022-09-20T09:08:00.595Z,101012.78
2022-09-20T09:11:09.534Z,101008.00
2022-09-20T09:14:41.408Z,101004.50
2022-09-20T09:17:43.106Z,101009.91
2022-09-20T09:20:46.642Z,101009.19
2022-09-20T09:23:53.247Z,101007.78
2022-09-20T09:27:08.187Z,101005.41
2022-09-20T09:30:20.935Z,100999.28
2022-09-20T09:33:26.512Z,101012.13
2022-09-20T09:36:28.339Z,101003.84
2022-09-20T09:39:32.506Z,101006.03
2022-09-20T09:42:34.449Z,101002.34
2022-09-20T09:45:39.283Z,101004.22
2022-09-20T09:48:41.242Z,100998.47
2022-09-20T09:52:01.745Z,100998.72
2022-09-20T09:55:05.802Z,100992.84
2022-09-20T09:58:21.872Z,100994.06
2022-09-20T10:01:39.680Z,100992.50
2022-09-20T10:04:48.475Z,100993.41
2022-09-20T10:07:59.477Z,100989.50
2022-09-20T10:11:13.069Z,100987.41
2022-09-20T10:24:03.551Z,100977.81
2022-09-20T10:27:18.635Z,100982.00
2022-09-20T10:30:23.828Z,100972.44
2022-09-20T10:33:36.692Z,100985.34
2022-09-20T10:36:45.968Z,100980.19
2022-09-20T10:39:57.185Z,100978.22
2022-09-20T10:43:15.289Z,100977.25
2022-09-20T10:46:32.455Z,100990.03
2022-09-20T10:49:40.442Z,100982.97
2022-09-20T10:52:58.680Z,100982.06
2022-09-20T10:56:15.990Z,100989.34
2022-09-20T10:59:34.825Z,100979.34
2022-09-20T11:02:49.464Z,100990.66
2022-09-20T11:06:11.317Z,100994.13
2022-09-20T11:09:17.482Z,100982.94
2022-09-20T11:12:27.042Z,100988.22
2022-09-20T11:15:35.676Z,100989.00
2022-09-20T11:18:42.887Z,100990.38
2022-09-20T11:21:52.153Z,100994.94
2022-09-20T11:24:58.816Z,100998.94
2022-09-20T11:28:11.331Z,101012.00
2022-09-20T11:31:22.217Z,101008.75
2022-09-20T11:34:29.985Z,101018.53
2022-09-20T11:37:37.245Z,101012.00
2022-09-20T11:40:45.624Z,101009.00
2022-09-20T11:43:52.873Z,100999.88
2022-09-20T11:46:58.347Z,101006.22
2022-09-20T11:50:21.600Z,101002.22
2022-09-20T11:53:39.963Z,101001.00
2022-09-20T11:56:50.337Z,100996.78
2022-09-20T11:59:56.574Z,100984.94
2022-09-20T12:02:59.460Z,100984.00
2022-09-20T12:06:03.004Z,100984.22
2022-09-20T12:09:08.045Z,100994.47
2022-09-20T12:12:37.796Z,100993.97
2022-09-20T12:15:41.177Z,100992.50
2022-09-20T12:19:03.121Z,100985.28
2022-09-20T12:22:28.123Z,100991.31
2022-09-20T12:25:39.258Z,100990.97
2022-09-20T12:28:44.602Z,100989.72
2022-09-20T12:31:50.216Z,100986.72
2022-09-20T12:34:52.489Z,100979.44
2022-09-20T12:37:54.162Z,100975.06
2022-09-20T12:41:14.946Z,100983.13
2022-09-20T12:44:32.848Z,100976.41
2022-09-20T12:47:37.476Z,100970.84
2022-09-20T12:50:57.672Z,100973.91
2022-09-20T12:54:02.416Z,100962.91
2022-09-20T12:57:18.033Z,100973.31
2022-09-20T13:00:32.011Z,100970.53
2022-09-20T13:03:37.556Z,100970.78
2022-09-20T13:06:43.299Z,100971.19
2022-09-20T13:09:45.117Z,100965.84
2022-09-20T13:12:52.595Z,100954.78
2022-09-20T13:15:58.113Z,100959.06
2022-09-20T13:19:05.459Z,100952.31
2022-09-20T13:22:13.102Z,100953.50
2022-09-20T13:25:16.977Z,100959.59
2022-09-20T13:28:29.789Z,100959.97
2022-09-20T13:31:35.720Z,100960.13
2022-09-20T13:34:42.200Z,100963.84
2022-09-20T13:37:52.807Z,100964.63
2022-09-20T13:41:03.324Z,100961.56
2022-09-20T13:44:05.255Z,100977.16
2022-09-20T13:47:25.032Z,100970.78
2022-09-20T13:50:32.840Z,100974.84
2022-09-20T13:53:42.871Z,100966.16
2022-09-20T13:56:44.760Z,100969.19
2022-09-20T13:59:46.727Z,100967.56
2022-09-20T14:02:49.408Z,100971.97
2022-09-20T14:05:55.841Z,100967.41
2022-09-20T14:09:01.353Z,100962.31
2022-09-20T14:12:04.636Z,100967.47
2022-09-20T14:15:09.906Z,100960.09
2022-09-20T14:18:14.817Z,100965.44
2022-09-20T14:21:23.864Z,100961.69
2022-09-20T14:24:32.256Z,100949.81
2022-09-20T14:27:36.253Z,100945.94
2022-09-20T14:30:38.002Z,100939.34
2022-09-20T14:33:44.826Z,100942.91
2022-09-20T14:36:49.395Z,100942.53
2022-09-20T14:39:52.906Z,100948.19
2022-09-20T14:42:57.529Z,100947.16
2022-09-20T14:46:01.620Z,100950.41
2022-09-20T14:49:20.683Z,100950.00
2022-09-20T14:52:34.637Z,100942.44
2022-09-20T14:55:37.913Z,100935.28
2022-09-20T14:59:03.573Z,100931.94
2022-09-20T15:02:13.756Z,100940.75
2022-09-20T15:05:21.821Z,100932.31
2022-09-20T15:08:25.530Z,100945.53
2022-09-20T15:11:29.909Z,100935.75
2022-09-20T15:14:37.151Z,100938.13
2022-09-20T15:17:39.637Z,100938.34
2022-09-20T15:20:43.394Z,100940.19
2022-09-20T15:23:46.451Z,100934.22
2022-09-20T15:26:48.708Z,100939.56
2022-09-20T15:29:50.524Z,100937.63
2022-09-20T15:32:52.810Z,100932.59
2022-09-20T15:35:54.479Z,100940.13
2022-09-20T15:38:57.708Z,100937.91
2022-09-20T15:41:59.387Z,100932.88
2022-09-20T15:45:01.050Z,100937.63
2022-09-20T15:48:03.017Z,100931.50
2022-09-20T15:51:06.739Z,100939.47
2022-09-20T15:54:13.443Z,100936.94
2022-09-20T15:57:15.516Z,100935.75
2022-09-20T16:00:20.063Z,100935.94
2022-09-20T16:03:28.828Z,100944.41
2022-09-20T16:06:32.390Z,100941.94
2022-09-20T16:09:37.763Z,100950.63
2022-09-20T16:12:39.458Z,100944.91
2022-09-20T16:15:42.269Z,100947.31
2022-09-20T16:19:02.434Z,100945.75
2022-09-20T16:22:04.768Z,100958.72
2022-09-20T16:25:08.641Z,100947.31
2022-09-20T16:28:10.278Z,100950.28
2022-09-20T16:31:34.782Z,100947.53
2022-09-20T16:34:36.976Z,100947.00
2022-09-20T16:37:39.343Z,100953.19
2022-09-20T16:40:42.319Z,100957.81
2022-09-20T16:43:44.039Z,100958.47
2022-09-20T16:46:46.044Z,100959.25
2022-09-20T16:49:48.377Z,100959.50
2022-09-20T16:52:50.022Z,100958.94
2022-09-20T16:55:55.740Z,100970.72
2022-09-20T16:58:57.720Z,100963.09
2022-09-20T17:01:59.493Z,100961.84
2022-09-20T17:05:01.245Z,100965.66
2022-09-20T17:08:03.371Z,100969.56
2022-09-20T17:11:08.321Z,100970.31
2022-09-20T17:14:10.031Z,100973.31
2022-09-20T17:17:12.720Z,100987.03
2022-09-20T17:20:14.611Z,100986.50
2022-09-20T17:23:16.718Z,100985.81
2022-09-20T17:26:23.036Z,100997.66
2022-09-20T17:29:24.758Z,100994.41
2022-09-20T17:32:26.382Z,101000.03
2022-09-20T17:35:29.391Z,101006.72
2022-09-20T17:38:33.589Z,101007.34
2022-09-20T17:41:37.372Z,101012.50
2022-09-20T17:44:39.092Z,101013.72
2022-09-20T17:47:41.961Z,101013.25
2022-09-20T17:50:43.953Z,101020.84
2022-09-20T17:53:46.571Z,101018.50
2022-09-20T17:56:51.599Z,101015.44
2022-09-20T17:59:53.196Z,101022.84
2022-09-20T18:02:55.377Z,101028.84
2022-09-20T18:05:57.035Z,101038.59
2022-09-20T18:09:03.045Z,101034.22
2022-09-20T18:12:06.648Z,101028.19
2022-09-20T18:15:08.904Z,101039.47
2022-09-20T18:18:10.838Z,101038.69
2022-09-20T18:21:14.660Z,101040.97
2022-09-20T18:24:16.301Z,101046.75
2022-09-20T18:27:19.351Z,101061.06
2022-09-20T18:30:21.534Z,101057.31
2022-09-20T18:33:23.157Z,101064.88
2022-09-20T18:36:25.584Z,101068.94
2022-09-20T18:39:29.838Z,101069.41
2022-09-20T18:42:33.562Z,101062.72
2022-09-20T18:45:35.211Z,101062.72
2022-09-20T18:48:39.674Z,101075.19
2022-09-20T18:51:42.158Z,101082.13
2022-09-20T18:54:43.987Z,101084.47
2022-09-20T18:57:47.578Z,101084.69
2022-09-20T19:01:02.349Z,101088.50
2022-09-20T19:04:20.598Z,101099.75
2022-09-20T19:07:36.133Z,101099.31
2022-09-20T19:10:43.678Z,101086.78
2022-09-20T19:13:54.901Z,101098.25
2022-09-20T19:17:01.396Z,101102.22
2022-09-20T19:20:09.674Z,101107.69
2022-09-20T19:23:43.636Z,101118.63
2022-09-20T19:26:45.700Z,101124.25
2022-09-20T19:29:49.465Z,101123.88
2022-09-20T19:32:53.990Z,101123.44
2022-09-20T19:35:56.352Z,101130.81
2022-09-20T19:39:07.925Z,101130.13
2022-09-20T19:42:24.114Z,101131.41
2022-09-20T19:45:34.496Z,101132.19
2022-09-20T19:48:39.209Z,101127.63
2022-09-20T19:51:42.925Z,101136.81
2022-09-20T19:54:48.094Z,101138.81
2022-09-20T19:57:50.964Z,101140.91
2022-09-20T20:00:54.689Z,101127.94
2022-09-20T20:03:56.812Z,101130.94
2022-09-20T20:07:05.916Z,101137.09
2022-09-20T20:10:22.865Z,101139.66
2022-09-20T20:13:51.705Z,101137.63
2022-09-20T20:17:03.091Z,101139.44
2022-09-20T20:20:17.640Z,101140.03
2022-09-20T20:23:48.755Z,101144.81
2022-09-20T20:26:50.442Z,101141.84
2022-09-20T20:29:52.263Z,101144.63
2022-09-20T20:32:58.064Z,101147.19
2022-09-20T20:36:01.570Z,101147.09
2022-09-20T20:39:03.426Z,101149.47
2022-09-20T20:42:06.297Z,101143.78
2022-09-20T20:45:11.079Z,101153.34
2022-09-20T20:48:13.910Z,101150.50
2022-09-20T20:51:17.710Z,101148.53
2022-09-20T20:54:20.796Z,101149.38
2022-09-20T20:57:22.396Z,101147.97
2022-09-20T21:00:24.649Z,101148.75
2022-09-20T21:03:27.697Z,101157.88
2022-09-20T21:06:31.836Z,101158.47
2022-09-20T21:09:33.565Z,101164.97
2022-09-20T21:12:35.168Z,101173.53
2022-09-20T21:15:36.827Z,101169.41
2022-09-20T21:18:41.593Z,101173.88
2022-09-20T21:21:45.389Z,101183.63
2022-09-20T21:24:47.034Z,101186.25
2022-09-20T21:27:49.382Z,101180.16
2022-09-20T21:30:56.349Z,101179.91
2022-09-20T21:33:59.979Z,101181.03
2022-09-20T21:37:01.621Z,101189.31
2022-09-20T21:40:03.698Z,101174.09
2022-09-20T21:43:05.465Z,101180.34
2022-09-20T21:46:10.435Z,101184.75
2022-09-20T21:49:14.161Z,101182.03
2022-09-20T21:52:15.797Z,101180.09
2022-09-20T21:55:17.468Z,101176.94
2022-09-20T21:58:19.248Z,101184.59
2022-09-20T22:01:23.123Z,101185.84
2022-09-20T22:04:29.074Z,101178.81
2022-09-20T22:07:30.707Z,101188.13
2022-09-20T22:10:32.658Z,101187.81
2022-09-20T22:13:34.910Z,101177.31
2022-09-20T22:16:37.983Z,101187.59
2022-09-20T22:19:40.985Z,101188.88
2022-09-20T22:22:42.593Z,101184.50
2022-09-20T22:25:44.187Z,101190.59
2022-09-20T22:28:49.770Z,101181.00
2022-09-20T22:31:52.132Z,101175.44
2022-09-20T22:34:56.560Z,101178.13
2022-09-20T22:37:58.292Z,101179.75
2022-09-20T22:41:00.090Z,101172.13
2022-09-20T22:44:02.254Z,101183.03
2022-09-20T22:47:04.085Z,101181.69
2022-09-20T22:50:07.925Z,101178.91
2022-09-20T22:53:09.558Z,101183.81
2022-09-20T22:56:14.234Z,101182.03
2022-09-20T22:59:15.903Z,101176.97
2022-09-20T23:02:17.616Z,101179.81
2022-09-20T23:05:20.620Z,101180.13
2022-09-20T23:08:24.330Z,101181.91
2022-09-20T23:11:26.804Z,101185.91
2022-09-20T23:14:28.480Z,101176.88
2022-09-20T23:17:30.142Z,101181.41
2022-09-20T23:20:33.383Z,101175.25
2022-09-20T23:23:35.819Z,101171.16
2022-09-20T23:26:39.084Z,101176.56
2022-09-20T23:29:40.703Z,101181.31
2022-09-20T23:32:42.762Z,101180.63
2022-09-20T23:35:46.471Z,101177.94
2022-09-20T23:38:48.609Z,101179.31
2022-09-20T23:41:51.349Z,101176.69
2022-09-20T23:44:53.185Z,101187.28
2022-09-20T23:47:54.865Z,101181.69
2022-09-20T23:50:58.467Z,101182.84
2022-09-20T23:54:00.195Z,101185.13
2022-09-20T23:57:01.821Z,101185.56
